sensor_id;sensor_type;location;lat;lon;timestamp;pressure;altitude;pressure_sealevel;temperature;humidity
68506;BME280;55509;50.680;17.942;2022-11-20T00:02:07;99465.08;;;-5.66;78.42
68506;BME280;55509;50.680;17.942;2022-11-20T00:05:09;99463.95;;;-5.69;78.17
68506;BME280;55509;50.680;17.942;2022-11-20T00:08:10;99465.18;;;-5.73;78.78
68506;BME280;55509;50.680;17.942;2022-11-20T00:11:16;99467.23;;;-5.79;78.81
68506;BME280;55509;50.680;17.942;2022-11-20T00:14:18;99466.21;;;-5.83;78.65
68506;BME280;55509;50.680;17.942;2022-11-20T00:17:20;99466.67;;;-5.90;78.58
68506;BME280;55509;50.680;17.942;2022-11-20T00:20:21;99464.20;;;-5.97;78.78
68506;BME280;55509;50.680;17.942;2022-11-20T00:23:23;99465.59;;;-6.02;78.94
68506;BME280;55509;50.680;17.942;2022-11-20T00:26:26;99462.03;;;-6.07;79.19
68506;BME280;55509;50.680;17.942;2022-11-20T00:29:27;99463.75;;;-6.11;79.37
68506;BME280;55509;50.680;17.942;2022-11-20T00:32:29;99462.72;;;-6.11;79.70
68506;BME280;55509;50.680;17.942;2022-11-20T00:35:31;99465.20;;;-6.09;79.81
68506;BME280;55509;50.680;17.942;2022-11-20T00:38:35;99462.41;;;-6.05;80.03
68506;BME280;55509;50.680;17.942;2022-11-20T00:41:37;99457.67;;;-6.04;80.18
68506;BME280;55509;50.680;17.942;2022-11-20T00:44:38;99451.35;;;-6.03;80.08
68506;BME280;55509;50.680;17.942;2022-11-20T00:47:40;99453.20;;;-6.04;80.35
68506;BME280;55509;50.680;17.942;2022-11-20T00:50:41;99457.00;;;-6.03;80.55
68506;BME280;55509;50.680;17.942;2022-11-20T00:53:44;99453.27;;;-6.01;80.86
68506;BME280;55509;50.680;17.942;2022-11-20T00:56:46;99453.98;;;-6.01;80.81
68506;BME280;55509;50.680;17.942;2022-11-20T00:59:47;99456.55;;;-6.01;80.81
68506;BME280;55509;50.680;17.942;2022-11-20T01:02:48;99462.19;;;-6.01;80.87
68506;BME280;55509;50.680;17.942;2022-11-20T01:05:50;99458.21;;;-6.03;80.84
68506;BME280;55509;50.680;17.942;2022-11-20T01:08:52;99457.08;;;-6.00;81.01
68506;BME280;55509;50.680;17.942;2022-11-20T01:11:54;99455.42;;;-5.98;81.05
68506;BME280;55509;50.680;17.942;2022-11-20T01:14:57;99455.61;;;-5.98;81.16
68506;BME280;55509;50.680;17.942;2022-11-20T01:17:58;99452.15;;;-5.99;81.20
68506;BME280;55509;50.680;17.942;2022-11-20T01:21:19;99455.14;;;-6.02;81.23
68506;BME280;55509;50.680;17.942;2022-11-20T01:24:21;99455.81;;;-6.03;81.28
68506;BME280;55509;50.680;17.942;2022-11-20T01:27:23;99456.17;;;-6.02;81.32
68506;BME280;55509;50.680;17.942;2022-11-20T01:30:24;99448.09;;;-5.98;81.37
68506;BME280;55509;50.680;17.942;2022-11-20T01:33:26;99443.90;;;-5.95;81.44
68506;BME280;55509;50.680;17.942;2022-11-20T01:36:29;99441.77;;;-5.92;81.18
68506;BME280;55509;50.680;17.942;2022-11-20T01:39:30;99431.95;;;-5.89;81.14
68506;BME280;55509;50.680;17.942;2022-11-20T01:42:32;99434.88;;;-5.88;81.23
68506;BME280;55509;50.680;17.942;2022-11-20T01:45:56;99434.85;;;-5.89;81.40
68506;BME280;55509;50.680;17.942;2022-11-20T01:52:04;99432.42;;;-5.95;81.22
68506;BME280;55509;50.680;17.942;2022-11-20T01:55:08;99428.01;;;-5.99;81.21
68506;BME280;55509;50.680;17.942;2022-11-20T01:58:11;99426.39;;;-6.02;81.35
68506;BME280;55509;50.680;17.942;2022-11-20T02:01:12;99425.05;;;-6.07;81.25
68506;BME280;55509;50.680;17.942;2022-11-20T02:04:15;99423.63;;;-6.13;81.11
68506;BME280;55509;50.680;17.942;2022-11-20T02:07:17;99423.20;;;-6.21;81.22
68506;BME280;55509;50.680;17.942;2022-11-20T02:10:18;99421.95;;;-6.27;81.21
68506;BME280;55509;50.680;17.942;2022-11-20T02:13:20;99422.23;;;-6.34;81.14
68506;BME280;55509;50.680;17.942;2022-11-20T02:16:44;99430.65;;;-6.42;80.95
68506;BME280;55509;50.680;17.942;2022-11-20T02:19:46;99428.06;;;-6.47;80.79
68506;BME280;55509;50.680;17.942;2022-11-20T02:22:50;99428.14;;;-6.45;81.13
68506;BME280;55509;50.680;17.942;2022-11-20T02:25:54;99426.71;;;-6.42;81.14
68506;BME280;55509;50.680;17.942;2022-11-20T02:28:57;99422.21;;;-6.39;81.19
68506;BME280;55509;50.680;17.942;2022-11-20T02:32:00;99419.60;;;-6.35;81.13
68506;BME280;55509;50.680;17.942;2022-11-20T02:38:10;99414.27;;;-6.26;81.45
68506;BME280;55509;50.680;17.942;2022-11-20T02:41:12;99416.21;;;-6.19;81.37
68506;BME280;55509;50.680;17.942;2022-11-20T02:44:13;99417.16;;;-6.17;81.42
68506;BME280;55509;50.680;17.942;2022-11-20T02:47:15;99414.27;;;-6.16;81.05
68506;BME280;55509;50.680;17.942;2022-11-20T02:50:16;99418.95;;;-6.15;81.07
68506;BME280;55509;50.680;17.942;2022-11-20T02:53:18;99416.89;;;-6.20;80.73
68506;BME280;55509;50.680;17.942;2022-11-20T02:56:19;99421.33;;;-6.30;80.14
68506;BME280;55509;50.680;17.942;2022-11-20T02:59:21;99424.23;;;-6.45;79.70
68506;BME280;55509;50.680;17.942;2022-11-20T03:02:22;99427.02;;;-6.53;80.52
68506;BME280;55509;50.680;17.942;2022-11-20T03:05:24;99424.95;;;-6.58;80.84
68506;BME280;55509;50.680;17.942;2022-11-20T03:08:25;99420.52;;;-6.62;81.24
68506;BME280;55509;50.680;17.942;2022-11-20T03:11:27;99418.33;;;-6.66;81.32
68506;BME280;55509;50.680;17.942;2022-11-20T03:14:29;99411.42;;;-6.68;81.54
68506;BME280;55509;50.680;17.942;2022-11-20T03:17:30;99410.88;;;-6.69;82.18
68506;BME280;55509;50.680;17.942;2022-11-20T03:20:32;99421.38;;;-6.67;81.94
68506;BME280;55509;50.680;17.942;2022-11-20T03:23:34;99421.61;;;-6.65;81.84
68506;BME280;55509;50.680;17.942;2022-11-20T03:26:36;99418.92;;;-6.64;81.64
68506;BME280;55509;50.680;17.942;2022-11-20T03:29:38;99422.23;;;-6.62;81.39
68506;BME280;55509;50.680;17.942;2022-11-20T03:32:39;99422.70;;;-6.63;81.33
68506;BME280;55509;50.680;17.942;2022-11-20T03:35:41;99423.17;;;-6.65;81.13
68506;BME280;55509;50.680;17.942;2022-11-20T03:38:43;99424.52;;;-6.65;80.83
68506;BME280;55509;50.680;17.942;2022-11-20T03:41:45;99422.55;;;-6.68;80.84
68506;BME280;55509;50.680;17.942;2022-11-20T03:44:46;99425.07;;;-6.69;80.87
68506;BME280;55509;50.680;17.942;2022-11-20T03:47:47;99422.45;;;-6.71;80.59
68506;BME280;55509;50.680;17.942;2022-11-20T03:50:49;99422.34;;;-6.73;80.50
68506;BME280;55509;50.680;17.942;2022-11-20T03:53:51;99429.48;;;-6.74;80.29
68506;BME280;55509;50.680;17.942;2022-11-20T03:56:53;99426.80;;;-6.77;80.38
68506;BME280;55509;50.680;17.942;2022-11-20T03:59:54;99427.25;;;-6.80;80.63
68506;BME280;55509;50.680;17.942;2022-11-20T04:02:59;99430.17;;;-6.79;80.67
68506;BME280;55509;50.680;17.942;2022-11-20T04:06:01;99437.57;;;-6.78;81.17
68506;BME280;55509;50.680;17.942;2022-11-20T04:09:03;99437.61;;;-6.76;81.35
68506;BME280;55509;50.680;17.942;2022-11-20T04:12:05;99436.48;;;-6.75;81.32
68506;BME280;55509;50.680;17.942;2022-11-20T04:15:07;99435.34;;;-6.73;81.56
68506;BME280;55509;50.680;17.942;2022-11-20T04:18:08;99435.71;;;-6.72;81.34
68506;BME280;55509;50.680;17.942;2022-11-20T04:21:10;99437.45;;;-6.72;81.46
68506;BME280;55509;50.680;17.942;2022-11-20T04:24:12;99437.74;;;-6.73;81.30
68506;BME280;55509;50.680;17.942;2022-11-20T04:27:13;99437.65;;;-6.75;81.16
68506;BME280;55509;50.680;17.942;2022-11-20T04:30:14;99433.64;;;-6.78;81.03
68506;BME280;55509;50.680;17.942;2022-11-20T04:33:16;99432.50;;;-6.81;81.26
68506;BME280;55509;50.680;17.942;2022-11-20T04:36:18;99431.20;;;-6.84;81.27
68506;BME280;55509;50.680;17.942;2022-11-20T04:39:20;99431.13;;;-6.90;81.25
68506;BME280;55509;50.680;17.942;2022-11-20T04:42:22;99430.09;;;-6.95;81.23
68506;BME280;55509;50.680;17.942;2022-11-20T04:45:29;99425.69;;;-6.98;81.12
68506;BME280;55509;50.680;17.942;2022-11-20T04:48:31;99421.60;;;-7.02;81.27
68506;BME280;55509;50.680;17.942;2022-11-20T04:51:32;99422.40;;;-7.04;81.23
68506;BME280;55509;50.680;17.942;2022-11-20T04:54:34;99419.67;;;-7.03;81.44
68506;BME280;55509;50.680;17.942;2022-11-20T04:57:35;99410.80;;;-7.03;81.44
68506;BME280;55509;50.680;17.942;2022-11-20T05:00:36;99411.50;;;-7.02;81.26
68506;BME280;55509;50.680;17.942;2022-11-20T05:03:41;99406.28;;;-7.00;81.50
68506;BME280;55509;50.680;17.942;2022-11-20T05:06:43;99407.10;;;-7.01;81.22
68506;BME280;55509;50.680;17.942;2022-11-20T05:09:46;99403.27;;;-7.03;81.31
68506;BME280;55509;50.680;17.942;2022-11-20T05:12:48;99403.55;;;-7.05;81.05
68506;BME280;55509;50.680;17.942;2022-11-20T05:15:49;99404.16;;;-7.07;81.25
68506;BME280;55509;50.680;17.942;2022-11-20T05:18:51;99405.12;;;-7.09;81.47
68506;BME280;55509;50.680;17.942;2022-11-20T05:21:53;99398.15;;;-7.09;81.78
68506;BME280;55509;50.680;17.942;2022-11-20T05:24:55;99400.89;;;-7.08;81.75
68506;BME280;55509;50.680;17.942;2022-11-20T05:27:56;99401.64;;;-7.10;81.71
68506;BME280;55509;50.680;17.942;2022-11-20T05:31:04;99401.90;;;-7.13;82.04
68506;BME280;55509;50.680;17.942;2022-11-20T05:34:06;99405.16;;;-7.12;82.39
68506;BME280;55509;50.680;17.942;2022-11-20T05:37:08;99403.86;;;-7.11;82.76
68506;BME280;55509;50.680;17.942;2022-11-20T05:40:09;99401.84;;;-7.10;82.90
68506;BME280;55509;50.680;17.942;2022-11-20T05:43:11;99397.79;;;-7.09;83.18
68506;BME280;55509;50.680;17.942;2022-11-20T05:46:14;99399.35;;;-7.08;83.22
68506;BME280;55509;50.680;17.942;2022-11-20T05:49:16;99397.41;;;-7.09;83.02
68506;BME280;55509;50.680;17.942;2022-11-20T05:52:17;99392.62;;;-7.10;83.04
68506;BME280;55509;50.680;17.942;2022-11-20T05:55:19;99391.52;;;-7.07;83.23
68506;BME280;55509;50.680;17.942;2022-11-20T05:58:20;99395.87;;;-7.05;83.19
68506;BME280;55509;50.680;17.942;2022-11-20T06:01:23;99395.94;;;-7.03;83.12
68506;BME280;55509;50.680;17.942;2022-11-20T06:04:25;99391.65;;;-7.03;82.95
68506;BME280;55509;50.680;17.942;2022-11-20T06:07:26;99395.77;;;-7.03;83.02
68506;BME280;55509;50.680;17.942;2022-11-20T06:10:28;99398.99;;;-7.03;83.05
68506;BME280;55509;50.680;17.942;2022-11-20T06:13:29;99401.34;;;-7.05;82.93
68506;BME280;55509;50.680;17.942;2022-11-20T06:16:31;99394.05;;;-7.03;82.94
68506;BME280;55509;50.680;17.942;2022-11-20T06:19:32;99386.28;;;-7.01;83.08
68506;BME280;55509;50.680;17.942;2022-11-20T06:22:34;99391.38;;;-6.97;82.81
68506;BME280;55509;50.680;17.942;2022-11-20T06:25:39;99388.79;;;-6.93;82.85
68506;BME280;55509;50.680;17.942;2022-11-20T06:28:41;99388.31;;;-6.87;82.94
68506;BME280;55509;50.680;17.942;2022-11-20T06:31:42;99390.42;;;-6.81;82.65
68506;BME280;55509;50.680;17.942;2022-11-20T06:34:44;99386.33;;;-6.76;82.36
68506;BME280;55509;50.680;17.942;2022-11-20T06:37:45;99385.77;;;-6.73;82.27
68506;BME280;55509;50.680;17.942;2022-11-20T06:40:46;99386.70;;;-6.65;82.16
68506;BME280;55509;50.680;17.942;2022-11-20T06:43:48;99382.58;;;-6.36;82.18
68506;BME280;55509;50.680;17.942;2022-11-20T06:46:50;99371.26;;;-5.42;81.22
68506;BME280;55509;50.680;17.942;2022-11-20T06:49:51;99360.50;;;-4.58;79.43
68506;BME280;55509;50.680;17.942;2022-11-20T06:52:52;99357.14;;;-3.52;77.54
68506;BME280;55509;50.680;17.942;2022-11-20T06:55:55;99349.71;;;-2.47;75.48
68506;BME280;55509;50.680;17.942;2022-11-20T06:58:57;99342.45;;;-1.34;74.04
68506;BME280;55509;50.680;17.942;2022-11-20T07:01:59;99338.73;;;-0.48;70.63
68506;BME280;55509;50.680;17.942;2022-11-20T07:05:00;99329.05;;;0.26;68.61
68506;BME280;55509;50.680;17.942;2022-11-20T07:08:02;99328.66;;;1.00;66.34
68506;BME280;55509;50.680;17.942;2022-11-20T07:11:05;99325.60;;;1.65;64.40
68506;BME280;55509;50.680;17.942;2022-11-20T07:14:06;99322.89;;;2.30;62.53
68506;BME280;55509;50.680;17.942;2022-11-20T07:17:08;99320.13;;;3.07;62.15
68506;BME280;55509;50.680;17.942;2022-11-20T07:20:09;99310.28;;;3.97;60.20
68506;BME280;55509;50.680;17.942;2022-11-20T07:23:11;99308.52;;;4.44;55.23
68506;BME280;55509;50.680;17.942;2022-11-20T07:26:12;99306.52;;;4.70;53.14
68506;BME280;55509;50.680;17.942;2022-11-20T07:29:14;99306.16;;;5.03;51.94
68506;BME280;55509;50.680;17.942;2022-11-20T07:32:16;99306.40;;;5.28;50.59
68506;BME280;55509;50.680;17.942;2022-11-20T07:35:17;99302.48;;;5.60;50.31
68506;BME280;55509;50.680;17.942;2022-11-20T07:38:20;99299.16;;;5.96;47.86
68506;BME280;55509;50.680;17.942;2022-11-20T07:41:21;99295.68;;;6.20;45.97
68506;BME280;55509;50.680;17.942;2022-11-20T07:44:23;99289.79;;;6.38;44.86
68506;BME280;55509;50.680;17.942;2022-11-20T07:47:27;99285.58;;;6.78;45.26
68506;BME280;55509;50.680;17.942;2022-11-20T07:50:28;99278.84;;;7.43;44.48
68506;BME280;55509;50.680;17.942;2022-11-20T07:53:30;99269.07;;;7.89;43.04
68506;BME280;55509;50.680;17.942;2022-11-20T07:56:31;99273.31;;;8.44;42.65
68506;BME280;55509;50.680;17.942;2022-11-20T07:59:33;99275.71;;;8.81;40.19
68506;BME280;55509;50.680;17.942;2022-11-20T08:02:37;99276.66;;;9.16;40.09
68506;BME280;55509;50.680;17.942;2022-11-20T08:05:40;99275.38;;;9.48;38.25
68506;BME280;55509;50.680;17.942;2022-11-20T08:08:42;99274.30;;;9.61;37.53
68506;BME280;55509;50.680;17.942;2022-11-20T08:11:43;99276.04;;;10.06;38.14
68506;BME280;55509;50.680;17.942;2022-11-20T08:15:04;99277.67;;;10.58;36.71
68506;BME280;55509;50.680;17.942;2022-11-20T08:21:07;99268.91;;;11.22;35.31
68506;BME280;55509;50.680;17.942;2022-11-20T08:24:09;99263.09;;;11.81;35.36
68506;BME280;55509;50.680;17.942;2022-11-20T08:27:11;99259.42;;;12.29;33.58
68506;BME280;55509;50.680;17.942;2022-11-20T08:30:13;99257.21;;;12.23;31.67
68506;BME280;55509;50.680;17.942;2022-11-20T08:33:14;99257.33;;;12.41;33.40
68506;BME280;55509;50.680;17.942;2022-11-20T08:36:16;99258.44;;;12.77;32.28
68506;BME280;55509;50.680;17.942;2022-11-20T08:39:18;99257.50;;;12.99;32.86
68506;BME280;55509;50.680;17.942;2022-11-20T08:42:19;99262.19;;;13.52;31.54
68506;BME280;55509;50.680;17.942;2022-11-20T08:45:21;99265.05;;;13.77;30.24
68506;BME280;55509;50.680;17.942;2022-11-20T08:48:22;99259.42;;;13.84;29.36
68506;BME280;55509;50.680;17.942;2022-11-20T08:51:24;99260.09;;;13.81;29.00
68506;BME280;55509;50.680;17.942;2022-11-20T08:54:25;99267.90;;;13.95;29.53
68506;BME280;55509;50.680;17.942;2022-11-20T08:57:27;99266.75;;;14.65;30.04
68506;BME280;55509;50.680;17.942;2022-11-20T09:00:28;99265.53;;;14.75;27.58
68506;BME280;55509;50.680;17.942;2022-11-20T09:03:30;99262.00;;;12.35;28.53
68506;BME280;55509;50.680;17.942;2022-11-20T09:06:31;99267.93;;;9.41;31.83
68506;BME280;55509;50.680;17.942;2022-11-20T09:09:33;99270.55;;;7.20;35.31
68506;BME280;55509;50.680;17.942;2022-11-20T09:12:34;99280.59;;;5.52;38.10
68506;BME280;55509;50.680;17.942;2022-11-20T09:15:36;99287.41;;;4.27;41.07
68506;BME280;55509;50.680;17.942;2022-11-20T09:18:37;99288.77;;;3.30;43.50
68506;BME280;55509;50.680;17.942;2022-11-20T09:21:39;99287.46;;;2.57;45.72
68506;BME280;55509;50.680;17.942;2022-11-20T09:24:41;99283.85;;;2.01;47.55
68506;BME280;55509;50.680;17.942;2022-11-20T09:27:43;99285.02;;;1.54;48.97
68506;BME280;55509;50.680;17.942;2022-11-20T09:30:47;99281.46;;;1.22;50.87
68506;BME280;55509;50.680;17.942;2022-11-20T09:33:48;99281.00;;;0.92;51.35
68506;BME280;55509;50.680;17.942;2022-11-20T09:36:50;99273.61;;;0.66;52.11
68506;BME280;55509;50.680;17.942;2022-11-20T09:39:51;99271.06;;;0.46;53.66
68506;BME280;55509;50.680;17.942;2022-11-20T09:43:02;99273.39;;;0.31;54.45
68506;BME280;55509;50.680;17.942;2022-11-20T09:46:17;99281.11;;;0.21;54.55
68506;BME280;55509;50.680;17.942;2022-11-20T09:49:28;99280.03;;;0.17;55.59
68506;BME280;55509;50.680;17.942;2022-11-20T09:52:42;99280.86;;;0.12;55.84
68506;BME280;55509;50.680;17.942;2022-11-20T09:55:47;99276.41;;;0.18;56.01
68506;BME280;55509;50.680;17.942;2022-11-20T09:58:54;99271.13;;;0.29;56.22
68506;BME280;55509;50.680;17.942;2022-11-20T10:01:57;99264.42;;;0.33;56.04
68506;BME280;55509;50.680;17.942;2022-11-20T10:21:10;99242.86;;;0.80;53.94
68506;BME280;55509;50.680;17.942;2022-11-20T10:30:31;99231.04;;;1.11;53.99
68506;BME280;55509;50.680;17.942;2022-11-20T10:33:39;99233.48;;;1.19;54.28
68506;BME280;55509;50.680;17.942;2022-11-20T10:37:25;99230.40;;;1.35;54.16
68506;BME280;55509;50.680;17.942;2022-11-20T10:43:19;99205.44;;;6.22;46.45
68506;BME280;55509;50.680;17.942;2022-11-20T10:46:22;99190.49;;;8.66;42.23
68506;BME280;55509;50.680;17.942;2022-11-20T10:49:24;99177.48;;;10.66;38.65
68506;BME280;55509;50.680;17.942;2022-11-20T10:53:16;99174.80;;;12.12;34.13
68506;BME280;55509;50.680;17.942;2022-11-20T10:55:54;99166.12;;;13.28;32.38
68506;BME280;55509;50.680;17.942;2022-11-20T10:59:03;99163.59;;;14.06;29.32
68506;BME280;55509;50.680;17.942;2022-11-20T11:02:19;99158.56;;;14.56;29.04
68506;BME280;55509;50.680;17.942;2022-11-20T11:08:39;99147.48;;;15.21;25.82
68506;BME280;55509;50.680;17.942;2022-11-20T11:11:41;99146.65;;;15.64;26.70
68506;BME280;55509;50.680;17.942;2022-11-20T11:14:43;99139.76;;;16.37;25.23
68506;BME280;55509;50.680;17.942;2022-11-20T11:17:51;99136.02;;;16.66;24.61
68506;BME280;55509;50.680;17.942;2022-11-20T11:21:02;99136.50;;;16.87;23.96
68506;BME280;55509;50.680;17.942;2022-11-20T11:24:14;99139.08;;;16.85;24.02
68506;BME280;55509;50.680;17.942;2022-11-20T11:27:19;99135.54;;;16.80;23.40
68506;BME280;55509;50.680;17.942;2022-11-20T11:30:21;99136.63;;;16.88;24.40
68506;BME280;55509;50.680;17.942;2022-11-20T11:33:32;99142.81;;;17.53;24.49
68506;BME280;55509;50.680;17.942;2022-11-20T11:36:40;99137.92;;;17.57;22.99
68506;BME280;55509;50.680;17.942;2022-11-20T11:39:42;99138.54;;;17.42;22.84
68506;BME280;55509;50.680;17.942;2022-11-20T11:42:46;99131.17;;;17.24;22.97
68506;BME280;55509;50.680;17.942;2022-11-20T11:45:54;99125.90;;;16.98;22.64
68506;BME280;55509;50.680;17.942;2022-11-20T11:48:57;99128.14;;;16.47;22.78
68506;BME280;55509;50.680;17.942;2022-11-20T11:52:04;99131.17;;;16.02;24.16
68506;BME280;55509;50.680;17.942;2022-11-20T11:55:17;99126.32;;;15.91;26.00
68506;BME280;55509;50.680;17.942;2022-11-20T12:01:42;99114.48;;;14.49;25.97
68506;BME280;55509;50.680;17.942;2022-11-20T12:08:11;99111.07;;;10.97;30.02
68506;BME280;55509;50.680;17.942;2022-11-20T12:11:36;99109.73;;;9.07;32.29
68506;BME280;55509;50.680;17.942;2022-11-20T12:14:44;99104.98;;;7.49;35.16
68506;BME280;55509;50.680;17.942;2022-11-20T12:17:50;99117.32;;;6.52;37.02
68506;BME280;55509;50.680;17.942;2022-11-20T12:30:23;99100.70;;;8.32;34.23
68506;BME280;55509;50.680;17.942;2022-11-20T12:33:37;99102.73;;;7.62;34.71
68506;BME280;55509;50.680;17.942;2022-11-20T12:39:55;99106.55;;;5.63;37.41
68506;BME280;55509;50.680;17.942;2022-11-20T12:52:56;99079.24;;;3.00;41.52
68506;BME280;55509;50.680;17.942;2022-11-20T12:59:39;99087.80;;;2.24;43.09
68506;BME280;55509;50.680;17.942;2022-11-20T13:06:17;99093.85;;;1.72;44.95
68506;BME280;55509;50.680;17.942;2022-11-20T13:09:19;99093.35;;;1.56;45.68
68506;BME280;55509;50.680;17.942;2022-11-20T13:18:43;99086.79;;;1.21;48.96
68506;BME280;55509;50.680;17.942;2022-11-20T13:21:48;99083.14;;;1.06;49.67
68506;BME280;55509;50.680;17.942;2022-11-20T13:24:53;99078.45;;;0.87;50.36
68506;BME280;55509;50.680;17.942;2022-11-20T13:27:55;99073.56;;;0.69;50.88
68506;BME280;55509;50.680;17.942;2022-11-20T13:30:57;99071.63;;;0.55;51.79
68506;BME280;55509;50.680;17.942;2022-11-20T13:34:03;99070.39;;;0.43;51.81
68506;BME280;55509;50.680;17.942;2022-11-20T13:37:23;99067.60;;;0.38;51.85
68506;BME280;55509;50.680;17.942;2022-11-20T13:40:25;99063.29;;;0.39;51.92
68506;BME280;55509;50.680;17.942;2022-11-20T13:43:34;99059.15;;;0.46;51.96
68506;BME280;55509;50.680;17.942;2022-11-20T13:46:45;99058.13;;;0.56;51.70
68506;BME280;55509;50.680;17.942;2022-11-20T13:49:48;99055.20;;;0.59;51.43
68506;BME280;55509;50.680;17.942;2022-11-20T13:52:55;99054.50;;;0.59;51.54
68506;BME280;55509;50.680;17.942;2022-11-20T13:59:27;99047.76;;;0.54;51.55
68506;BME280;55509;50.680;17.942;2022-11-20T14:02:32;99043.23;;;0.48;51.79
68506;BME280;55509;50.680;17.942;2022-11-20T14:05:36;99042.87;;;0.42;52.27
68506;BME280;55509;50.680;17.942;2022-11-20T14:08:40;99042.86;;;0.33;52.90
68506;BME280;55509;50.680;17.942;2022-11-20T14:11:47;99040.40;;;0.22;53.38
68506;BME280;55509;50.680;17.942;2022-11-20T14:14:59;99042.08;;;0.09;54.03
68506;BME280;55509;50.680;17.942;2022-11-20T14:18:10;99046.52;;;-0.02;54.62
68506;BME280;55509;50.680;17.942;2022-11-20T14:21:20;99057.35;;;-0.14;54.72
68506;BME280;55509;50.680;17.942;2022-11-20T14:24:23;99057.48;;;-0.23;54.95
68506;BME280;55509;50.680;17.942;2022-11-20T14:27:25;99059.02;;;-0.28;54.91
68506;BME280;55509;50.680;17.942;2022-11-20T14:30:35;99057.44;;;-0.31;55.42
68506;BME280;55509;50.680;17.942;2022-11-20T14:33:39;99047.74;;;-0.33;55.83
68506;BME280;55509;50.680;17.942;2022-11-20T14:36:40;99041.69;;;-0.37;56.32
68506;BME280;55509;50.680;17.942;2022-11-20T14:39:51;99033.20;;;-0.41;56.24
68506;BME280;55509;50.680;17.942;2022-11-20T14:42:53;99025.39;;;-0.46;57.26
68506;BME280;55509;50.680;17.942;2022-11-20T14:46:09;99022.59;;;-0.52;57.53
68506;BME280;55509;50.680;17.942;2022-11-20T14:49:11;99019.95;;;-0.59;58.27
68506;BME280;55509;50.680;17.942;2022-11-20T14:52:14;99014.90;;;-0.66;58.51
68506;BME280;55509;50.680;17.942;2022-11-20T14:55:24;99009.32;;;-0.74;58.78
68506;BME280;55509;50.680;17.942;2022-11-20T14:58:33;99010.46;;;-0.83;58.60
68506;BME280;55509;50.680;17.942;2022-11-20T15:01:35;99004.38;;;-0.91;58.84
68506;BME280;55509;50.680;17.942;2022-11-20T15:04:58;99005.20;;;-0.95;58.83
68506;BME280;55509;50.680;17.942;2022-11-20T15:08:07;99005.55;;;-0.95;58.88
68506;BME280;55509;50.680;17.942;2022-11-20T15:11:19;99003.84;;;-0.93;59.39
68506;BME280;55509;50.680;17.942;2022-11-20T15:14:22;98998.67;;;-0.92;59.47
68506;BME280;55509;50.680;17.942;2022-11-20T15:17:24;98998.87;;;-0.89;59.45
68506;BME280;55509;50.680;17.942;2022-11-20T15:20:27;98999.55;;;-0.88;59.81
68506;BME280;55509;50.680;17.942;2022-11-20T15:23:29;98990.77;;;-0.87;59.91
68506;BME280;55509;50.680;17.942;2022-11-20T15:26:31;98985.24;;;-0.86;60.00
68506;BME280;55509;50.680;17.942;2022-11-20T15:29:33;98990.42;;;-0.86;59.80
68506;BME280;55509;50.680;17.942;2022-11-20T15:32:34;98988.88;;;-0.85;60.05
68506;BME280;55509;50.680;17.942;2022-11-20T15:35:36;98989.77;;;-0.82;59.79
68506;BME280;55509;50.680;17.942;2022-11-20T15:38:37;98994.09;;;-0.79;59.70
68506;BME280;55509;50.680;17.942;2022-11-20T15:41:38;98995.33;;;-0.75;59.73
68506;BME280;55509;50.680;17.942;2022-11-20T15:44:40;98995.00;;;-0.74;59.86
68506;BME280;55509;50.680;17.942;2022-11-20T15:47:41;98989.14;;;-0.72;59.53
68506;BME280;55509;50.680;17.942;2022-11-20T15:50:51;98985.02;;;-0.69;59.99
68506;BME280;55509;50.680;17.942;2022-11-20T15:53:54;98978.27;;;-0.69;60.46
68506;BME280;55509;50.680;17.942;2022-11-20T15:56:56;98979.31;;;-0.69;60.41
68506;BME280;55509;50.680;17.942;2022-11-20T15:59:57;98986.04;;;-0.68;60.23
68506;BME280;55509;50.680;17.942;2022-11-20T16:02:59;98977.08;;;-0.67;60.21
68506;BME280;55509;50.680;17.942;2022-11-20T16:06:00;98976.74;;;-0.67;60.53
68506;BME280;55509;50.680;17.942;2022-11-20T16:09:02;98979.50;;;-0.67;60.22
68506;BME280;55509;50.680;17.942;2022-11-20T16:12:03;98976.72;;;-0.68;60.29
68506;BME280;55509;50.680;17.942;2022-11-20T16:15:05;98979.33;;;-0.67;60.28
68506;BME280;55509;50.680;17.942;2022-11-20T16:18:25;98980.03;;;-0.67;60.33
68506;BME280;55509;50.680;17.942;2022-11-20T16:21:27;98981.73;;;-0.67;60.17
68506;BME280;55509;50.680;17.942;2022-11-20T16:24:32;98985.38;;;-0.65;60.61
68506;BME280;55509;50.680;17.942;2022-11-20T16:27:33;98981.41;;;-0.64;60.70
68506;BME280;55509;50.680;17.942;2022-11-20T16:30:35;98978.33;;;-0.63;60.92
68506;BME280;55509;50.680;17.942;2022-11-20T16:33:37;98972.79;;;-0.63;61.21
68506;BME280;55509;50.680;17.942;2022-11-20T16:36:39;98975.36;;;-0.65;61.65
68506;BME280;55509;50.680;17.942;2022-11-20T16:39:42;98973.78;;;-0.71;61.73
68506;BME280;55509;50.680;17.942;2022-11-20T16:42:43;98976.31;;;-0.79;62.26
68506;BME280;55509;50.680;17.942;2022-11-20T16:45:45;98972.80;;;-0.88;62.81
68506;BME280;55509;50.680;17.942;2022-11-20T16:48:55;98969.65;;;-0.95;62.92
68506;BME280;55509;50.680;17.942;2022-11-20T16:51:57;98971.48;;;-1.03;63.77
68506;BME280;55509;50.680;17.942;2022-11-20T16:55:01;98974.54;;;-1.12;64.01
68506;BME280;55509;50.680;17.942;2022-11-20T16:58:03;98975.15;;;-1.20;64.60
68506;BME280;55509;50.680;17.942;2022-11-20T17:01:05;98980.45;;;-1.27;64.86
68506;BME280;55509;50.680;17.942;2022-11-20T17:04:07;98974.52;;;-1.35;65.10
68506;BME280;55509;50.680;17.942;2022-11-20T17:07:08;98973.61;;;-1.40;65.87
68506;BME280;55509;50.680;17.942;2022-11-20T17:10:11;98974.61;;;-1.44;65.94
68506;BME280;55509;50.680;17.942;2022-11-20T17:13:12;98973.17;;;-1.50;66.35
68506;BME280;55509;50.680;17.942;2022-11-20T17:16:15;98973.81;;;-1.55;66.78
68506;BME280;55509;50.680;17.942;2022-11-20T17:19:16;98962.74;;;-1.59;67.18
68506;BME280;55509;50.680;17.942;2022-11-20T17:22:18;98962.36;;;-1.63;67.23
68506;BME280;55509;50.680;17.942;2022-11-20T17:25:19;98961.82;;;-1.67;67.47
68506;BME280;55509;50.680;17.942;2022-11-20T17:28:23;98956.23;;;-1.73;67.48